createdAt,value
2023-02-22T00:00:42.803Z,7.18
2023-02-22T00:03:13.115Z,7.18
2023-02-22T00:05:40.888Z,7.17
2023-02-22T00:08:10.192Z,7.17
2023-02-22T00:10:39.539Z,7.14
2023-02-22T00:13:09.859Z,7.13
2023-02-22T00:15:41.415Z,7.12
2023-02-22T00:18:11.359Z,7.07
2023-02-22T00:20:39.852Z,7.04
2023-02-22T00:23:08.980Z,7.02
2023-02-22T00:25:37.281Z,6.98
2023-02-22T00:28:05.961Z,6.95
2023-02-22T00:30:34.739Z,6.95
2023-02-22T00:33:04.024Z,6.95
2023-02-22T00:35:33.790Z,6.92
2023-02-22T00:38:03.395Z,6.92
2023-02-22T00:40:32.763Z,6.92
2023-02-22T00:43:02.455Z,6.93
2023-02-22T00:45:32.146Z,6.93
2023-02-22T00:48:00.995Z,6.92
2023-02-22T00:50:31.707Z,6.92
2023-02-22T00:53:01.593Z,6.92
2023-02-22T00:55:32.106Z,6.92
2023-02-22T00:58:01.963Z,6.90
2023-02-22T01:00:32.292Z,6.89
2023-02-22T01:03:00.868Z,6.88
2023-02-22T01:05:31.847Z,6.85
2023-02-22T01:08:01.301Z,6.82
2023-02-22T01:10:30.950Z,6.82
2023-02-22T01:13:00.934Z,6.80
2023-02-22T01:15:30.610Z,6.79
2023-02-22T01:17:59.760Z,6.79
2023-02-22T01:20:29.166Z,6.78
2023-02-22T01:23:00.705Z,6.78
2023-02-22T01:25:32.316Z,6.76
2023-02-22T01:28:02.677Z,6.76
2023-02-22T01:30:33.861Z,6.74
2023-02-22T01:33:02.681Z,6.72
2023-02-22T01:35:32.819Z,6.71
2023-02-22T01:38:02.243Z,6.70
2023-02-22T01:40:32.276Z,6.68
2023-02-22T01:43:03.660Z,6.69
2023-02-22T01:45:54.297Z,6.71
2023-02-22T01:48:29.250Z,6.70
2023-02-22T01:51:00.876Z,6.72
2023-02-22T01:53:34.476Z,6.73
2023-02-22T01:56:03.385Z,6.73
2023-02-22T01:58:36.353Z,6.76
2023-02-22T02:01:04.570Z,6.75
2023-02-22T02:03:36.429Z,6.78
2023-02-22T02:06:11.781Z,6.79
2023-02-22T02:08:49.777Z,6.82
2023-02-22T02:11:20.289Z,6.83
2023-02-22T02:13:50.629Z,6.83
2023-02-22T02:16:18.721Z,6.85
2023-02-22T02:18:46.450Z,6.86
2023-02-22T02:21:40.073Z,6.89
2023-02-22T02:24:50.320Z,6.88
2023-02-22T02:27:21.545Z,6.87
2023-02-22T02:30:38.349Z,6.88
2023-02-22T02:33:14.530Z,6.88
2023-02-22T02:35:52.488Z,6.89
2023-02-22T02:38:31.577Z,6.88
2023-02-22T02:41:07.358Z,6.87
2023-02-22T02:43:41.103Z,6.86
2023-02-22T02:46:13.253Z,6.84
2023-02-22T02:48:50.398Z,6.84
2023-02-22T02:51:20.037Z,6.82
2023-02-22T02:53:51.420Z,6.81
2023-02-22T02:56:19.326Z,6.80
2023-02-22T02:58:51.094Z,6.81
2023-02-22T03:01:35.667Z,6.82
2023-02-22T03:04:20.347Z,6.81
2023-02-22T03:07:17.869Z,6.80
2023-02-22T03:10:00.826Z,6.80
2023-02-22T03:12:39.842Z,6.78
2023-02-22T03:15:21.805Z,6.80
2023-02-22T03:17:55.543Z,6.79
2023-02-22T03:20:31.742Z,6.78
2023-02-22T03:23:09.715Z,6.78
2023-02-22T03:25:44.125Z,6.76
2023-02-22T03:28:16.637Z,6.75
2023-02-22T03:30:49.824Z,6.75
2023-02-22T03:33:27.998Z,6.78
2023-02-22T03:36:02.692Z,6.79
2023-02-22T03:38:34.838Z,6.80
2023-02-22T03:41:03.776Z,6.81
2023-02-22T03:43:37.621Z,6.84
2023-02-22T03:46:10.362Z,6.86
2023-02-22T03:48:45.228Z,6.89
2023-02-22T03:51:17.014Z,6.89
2023-02-22T03:53:49.155Z,6.89
2023-02-22T03:56:23.936Z,6.92
2023-02-22T03:58:52.962Z,6.92
2023-02-22T04:01:23.564Z,6.93
2023-02-22T04:03:51.403Z,6.93
2023-02-22T04:06:20.577Z,6.95
2023-02-22T04:08:48.447Z,6.94
2023-02-22T04:11:16.602Z,6.94
2023-02-22T04:13:45.418Z,6.95
2023-02-22T04:16:13.227Z,6.96
2023-02-22T04:18:41.070Z,6.96
2023-02-22T04:21:09.245Z,6.96
2023-02-22T04:23:45.647Z,6.96
2023-02-22T04:26:14.147Z,6.96
2023-02-22T04:28:41.942Z,6.97
2023-02-22T04:31:19.466Z,6.98
2023-02-22T04:33:47.633Z,6.98
2023-02-22T04:36:19.196Z,6.98
2023-02-22T04:38:48.946Z,6.99
2023-02-22T04:41:18.756Z,7.00
2023-02-22T04:43:47.055Z,6.97
2023-02-22T04:46:33.556Z,6.97
2023-02-22T04:49:02.642Z,6.98
2023-02-22T04:51:33.082Z,6.98
2023-02-22T04:54:08.201Z,6.99
2023-02-22T04:56:38.040Z,6.99
2023-02-22T04:59:06.842Z,7.00
2023-02-22T05:01:38.400Z,7.01
2023-02-22T05:04:07.431Z,7.00
2023-02-22T05:06:35.274Z,7.00
2023-02-22T05:09:03.174Z,7.00
2023-02-22T05:11:32.246Z,7.00
2023-02-22T05:14:00.181Z,6.98
2023-02-22T05:16:27.989Z,6.99
2023-02-22T05:18:55.735Z,6.98
2023-02-22T05:21:23.550Z,6.96
2023-02-22T05:23:51.382Z,6.95
2023-02-22T05:26:19.700Z,6.92
2023-02-22T05:28:48.801Z,6.91
2023-02-22T05:31:17.603Z,6.86
2023-02-22T05:33:45.522Z,6.84
2023-02-22T05:36:13.205Z,6.80
2023-02-22T05:38:43.384Z,6.77
2023-02-22T05:41:12.557Z,6.74
2023-02-22T05:43:40.559Z,6.70
2023-02-22T05:46:10.058Z,6.69
2023-02-22T05:48:37.964Z,6.62
2023-02-22T05:51:05.964Z,6.59
2023-02-22T05:53:33.981Z,6.56
2023-02-22T05:56:01.732Z,6.53
2023-02-22T05:58:29.463Z,6.49
2023-02-22T06:00:57.439Z,6.47
2023-02-22T06:03:26.683Z,6.44
2023-02-22T06:05:54.433Z,6.41
2023-02-22T06:08:22.143Z,6.39
2023-02-22T06:10:49.887Z,6.37
2023-02-22T06:13:17.760Z,6.36
2023-02-22T06:15:45.474Z,6.35
2023-02-22T06:18:13.190Z,6.34
2023-02-22T06:20:42.400Z,6.36
2023-02-22T06:23:10.154Z,6.35
2023-02-22T06:25:37.926Z,6.34
2023-02-22T06:28:05.880Z,6.36
2023-02-22T06:30:33.645Z,6.34
2023-02-22T06:33:01.585Z,6.33
2023-02-22T06:35:29.282Z,6.31
2023-02-22T06:37:58.425Z,6.33
2023-02-22T06:40:29.375Z,6.29
2023-02-22T06:42:57.787Z,6.26
2023-02-22T06:45:25.609Z,6.23
2023-02-22T06:47:53.453Z,6.20
2023-02-22T06:50:23.631Z,6.19
2023-02-22T06:52:51.774Z,6.16
2023-02-22T06:55:23.308Z,6.15
2023-02-22T06:57:51.807Z,6.11
2023-02-22T07:00:21.546Z,6.10
2023-02-22T07:02:49.729Z,6.07
2023-02-22T07:05:19.406Z,6.07
2023-02-22T07:07:47.988Z,6.05
2023-02-22T07:10:22.481Z,6.07
2023-02-22T07:12:52.433Z,6.03
2023-02-22T07:15:22.447Z,6.04
2023-02-22T07:17:50.296Z,6.03
2023-02-22T07:20:18.419Z,6.03
2023-02-22T07:22:46.161Z,6.04
2023-02-22T07:25:13.989Z,6.06
2023-02-22T07:27:43.968Z,6.10
2023-02-22T07:30:18.670Z,6.14
2023-02-22T07:32:47.721Z,6.14
2023-02-22T07:35:17.061Z,6.16
2023-02-22T07:37:45.254Z,6.18
2023-02-22T07:40:13.649Z,6.20
2023-02-22T07:42:57.448Z,6.25
2023-02-22T07:45:27.278Z,6.27
2023-02-22T07:47:55.625Z,6.31
2023-02-22T07:50:24.828Z,6.35
2023-02-22T07:52:54.867Z,6.41
2023-02-22T07:55:25.938Z,6.44
2023-02-22T07:57:57.418Z,6.50
2023-02-22T08:00:28.480Z,6.55
2023-02-22T08:02:57.118Z,6.59
2023-02-22T08:05:27.849Z,6.66
2023-02-22T08:07:56.096Z,6.72
2023-02-22T08:10:25.828Z,6.80
2023-02-22T08:12:56.192Z,6.84
2023-02-22T08:15:28.456Z,6.88
2023-02-22T08:17:57.139Z,6.92
2023-02-22T08:20:25.686Z,6.96
2023-02-22T08:22:53.530Z,7.02
2023-02-22T08:25:23.262Z,7.07
2023-02-22T08:27:51.180Z,7.11
2023-02-22T08:30:23.561Z,7.16
2023-02-22T08:32:52.365Z,7.16
2023-02-22T08:35:23.298Z,7.25
2023-02-22T08:37:54.151Z,7.30
2023-02-22T08:40:27.665Z,7.34
2023-02-22T08:42:55.676Z,7.36
2023-02-22T08:45:25.217Z,7.43
2023-02-22T08:47:53.110Z,7.47
2023-02-22T08:50:23.595Z,7.52
2023-02-22T08:52:52.228Z,7.56
2023-02-22T08:55:21.577Z,7.61
2023-02-22T08:57:50.583Z,7.66
2023-02-22T09:00:21.399Z,7.73
2023-02-22T09:02:50.660Z,7.79
2023-02-22T09:05:18.476Z,7.82
2023-02-22T09:07:46.487Z,7.89
2023-02-22T09:10:16.504Z,7.98
2023-02-22T09:12:44.340Z,8.01
2023-02-22T09:15:12.983Z,8.08
2023-02-22T09:17:40.846Z,8.13
2023-02-22T09:20:12.408Z,8.21
2023-02-22T09:22:40.519Z,8.26
2023-02-22T09:25:16.821Z,8.34
2023-02-22T09:27:45.216Z,8.39
2023-02-22T09:30:19.317Z,8.47
2023-02-22T09:32:47.333Z,8.53
2023-02-22T09:35:16.526Z,8.60
2023-02-22T09:37:45.033Z,8.66
2023-02-22T09:40:24.686Z,8.75
2023-02-22T09:43:03.503Z,8.83
2023-02-22T09:45:36.881Z,8.89
2023-02-22T09:48:21.339Z,8.96
2023-02-22T09:50:54.768Z,9.02
2023-02-22T09:53:29.428Z,8.83
2023-02-22T09:56:01.814Z,9.10
2023-02-22T09:58:34.304Z,9.19
2023-02-22T10:01:23.916Z,9.20
2023-02-22T10:03:57.460Z,9.30
2023-02-22T10:06:27.244Z,9.37
2023-02-22T10:08:59.287Z,9.42
2023-02-22T10:11:41.743Z,9.46
2023-02-22T10:14:30.361Z,9.50
2023-02-22T10:17:06.224Z,9.53
2023-02-22T10:19:44.876Z,9.60
2023-02-22T10:22:31.553Z,9.65
2023-02-22T10:25:04.756Z,9.69
2023-02-22T10:27:35.295Z,9.73
2023-02-22T10:30:23.237Z,9.80
2023-02-22T10:32:58.638Z,9.83
2023-02-22T10:35:29.739Z,9.90
2023-02-22T10:38:05.357Z,9.96
2023-02-22T10:40:33.409Z,9.99
2023-02-22T10:43:06.766Z,10.06
2023-02-22T10:45:37.107Z,10.10
2023-02-22T10:48:11.550Z,10.18
2023-02-22T10:50:41.998Z,10.24
2023-02-22T10:53:11.817Z,10.31
2023-02-22T10:56:18.365Z,10.34
2023-02-22T10:58:51.063Z,10.40
2023-02-22T11:01:26.636Z,10.46
2023-02-22T11:04:02.746Z,10.55
2023-02-22T11:06:31.252Z,10.60
2023-02-22T11:09:11.084Z,10.68
2023-02-22T11:11:40.249Z,10.73
2023-02-22T11:14:10.701Z,10.78
2023-02-22T11:16:42.025Z,10.84
2023-02-22T11:19:20.910Z,10.94
2023-02-22T11:21:51.759Z,10.98
2023-02-22T11:24:24.096Z,11.06
2023-02-22T11:26:56.254Z,11.12
2023-02-22T11:29:28.701Z,11.18
2023-02-22T11:31:57.174Z,11.25
2023-02-22T11:34:36.388Z,11.35
2023-02-22T11:37:29.286Z,11.43
2023-02-22T11:40:21.796Z,11.48
2023-02-22T11:42:51.556Z,11.55
2023-02-22T11:45:23.784Z,11.66
2023-02-22T11:47:57.395Z,11.72
2023-02-22T11:50:29.894Z,11.80
2023-02-22T11:53:16.921Z,11.87
2023-02-22T11:55:57.267Z,11.92
2023-02-22T11:58:37.873Z,11.99
2023-02-22T12:01:17.114Z,12.05
2023-02-22T12:04:10.502Z,12.11
2023-02-22T12:06:48.475Z,12.17
2023-02-22T12:09:21.870Z,12.23
2023-02-22T12:12:00.915Z,12.31
2023-02-22T12:14:41.929Z,12.35
2023-02-22T12:17:29.455Z,12.41
2023-02-22T12:20:06.912Z,12.48
2023-02-22T12:22:36.794Z,12.56
2023-02-22T12:25:14.607Z,12.62
2023-02-22T12:27:47.042Z,12.69
2023-02-22T12:30:23.584Z,12.73
2023-02-22T12:32:53.834Z,12.79
2023-02-22T12:35:24.453Z,12.86
2023-02-22T12:38:04.098Z,12.92
2023-02-22T12:40:38.530Z,12.96
2023-02-22T12:43:16.706Z,13.03
2023-02-22T12:45:50.210Z,13.06
2023-02-22T12:48:27.295Z,13.12
2023-02-22T12:50:59.602Z,13.14
2023-02-22T12:53:32.253Z,13.17
2023-02-22T12:56:05.782Z,13.20
2023-02-22T12:58:42.224Z,13.27
2023-02-22T13:01:17.897Z,13.31
2023-02-22T13:03:46.717Z,13.33
2023-02-22T13:06:35.455Z,13.37
2023-02-22T13:09:21.074Z,13.40
2023-02-22T13:11:56.818Z,13.42
2023-02-22T13:14:40.669Z,13.46
2023-02-22T13:17:20.789Z,13.50
2023-02-22T13:19:56.732Z,13.53
2023-02-22T13:22:33.060Z,13.57
2023-02-22T13:25:09.935Z,13.58
2023-02-22T13:27:43.786Z,13.60
2023-02-22T13:30:22.769Z,13.62
2023-02-22T13:33:04.547Z,13.63
2023-02-22T13:35:56.820Z,13.61
2023-02-22T13:38:50.492Z,13.61
2023-02-22T13:41:37.226Z,13.63
2023-02-22T13:44:29.538Z,13.63
2023-02-22T13:47:31.896Z,13.61
2023-02-22T13:50:41.056Z,13.59
2023-02-22T13:53:15.492Z,13.62
2023-02-22T13:55:49.416Z,13.62
2023-02-22T13:58:17.479Z,13.60
2023-02-22T14:00:48.598Z,13.63
2023-02-22T14:03:36.133Z,13.62
2023-02-22T14:06:05.706Z,13.60
2023-02-22T14:08:43.780Z,13.64
2023-02-22T14:11:45.080Z,13.62
2023-02-22T14:14:17.369Z,13.63
2023-02-22T14:16:45.579Z,13.61
2023-02-22T14:19:22.934Z,13.66
2023-02-22T14:22:01.951Z,13.68
2023-02-22T14:24:31.645Z,13.67
2023-02-22T14:27:03.419Z,13.68
2023-02-22T14:29:31.998Z,13.68
2023-02-22T14:32:04.344Z,13.70
2023-02-22T14:34:50.626Z,13.67
2023-02-22T14:37:24.815Z,13.69
2023-02-22T14:39:58.457Z,13.71
2023-02-22T14:42:32.731Z,13.71
2023-02-22T14:45:03.016Z,13.71
2023-02-22T14:47:39.800Z,13.72
2023-02-22T14:50:17.402Z,13.73
2023-02-22T14:52:49.889Z,13.72
2023-02-22T14:55:22.537Z,13.72
2023-02-22T14:58:00.093Z,13.72
2023-02-22T15:00:37.904Z,13.73
2023-02-22T15:03:05.648Z,13.72
2023-02-22T15:05:39.362Z,13.75
2023-02-22T15:08:09.392Z,13.73
2023-02-22T15:10:43.809Z,13.75
2023-02-22T15:13:23.726Z,13.74
2023-02-22T15:16:00.498Z,13.73
2023-02-22T15:18:34.827Z,13.73
2023-02-22T15:21:13.119Z,13.73
2023-02-22T15:23:44.698Z,13.72
2023-02-22T15:26:35.255Z,13.71
2023-02-22T15:29:08.664Z,13.68
2023-02-22T15:31:38.173Z,13.69
2023-02-22T15:34:24.148Z,13.68
2023-02-22T15:36:56.156Z,13.67
2023-02-22T15:39:29.534Z,13.64
2023-02-22T15:42:06.063Z,13.65
2023-02-22T15:44:36.923Z,13.63
2023-02-22T15:47:05.790Z,13.61
2023-02-22T15:49:37.819Z,13.58
2023-02-22T15:52:10.759Z,13.56
2023-02-22T15:54:45.430Z,13.56
2023-02-22T15:57:19.512Z,13.54
2023-02-22T15:59:53.007Z,13.51
2023-02-22T16:02:31.545Z,13.51
2023-02-22T16:05:02.645Z,13.47
2023-02-22T16:07:32.212Z,13.45
2023-02-22T16:10:07.999Z,13.42
2023-02-22T16:12:36.262Z,13.40
2023-02-22T16:15:04.682Z,13.39
2023-02-22T16:17:37.739Z,13.39
2023-02-22T16:20:36.210Z,13.34
2023-02-22T16:23:26.714Z,13.31
2023-02-22T16:26:06.387Z,13.29
2023-02-22T16:28:35.956Z,13.25
2023-02-22T16:31:04.736Z,13.22
2023-02-22T16:33:33.989Z,13.21
2023-02-22T16:36:07.930Z,13.21
2023-02-22T16:38:39.181Z,13.18
2023-02-22T16:41:08.312Z,13.15
2023-02-22T16:43:36.777Z,13.11
2023-02-22T16:46:07.211Z,13.08
2023-02-22T16:48:38.145Z,13.05
2023-02-22T16:51:14.770Z,13.05
2023-02-22T16:53:44.594Z,13.01
2023-02-22T16:56:16.117Z,12.98
2023-02-22T16:58:46.261Z,12.94
2023-02-22T17:01:14.023Z,12.91
2023-02-22T17:03:41.888Z,12.87
2023-02-22T17:06:11.010Z,12.84
2023-02-22T17:08:39.278Z,12.82
2023-02-22T17:11:09.516Z,12.80
2023-02-22T17:13:37.402Z,12.76
2023-02-22T17:16:05.734Z,12.75
2023-02-22T17:18:34.490Z,12.73
2023-02-22T17:21:03.622Z,12.71
2023-02-22T17:23:31.603Z,12.68
2023-02-22T17:26:02.082Z,12.67
2023-02-22T17:28:32.489Z,12.64
2023-02-22T17:31:01.801Z,12.62
2023-02-22T17:33:33.722Z,12.60
2023-02-22T17:36:02.907Z,12.59
2023-02-22T17:38:31.726Z,12.56
2023-02-22T17:41:01.408Z,12.55
2023-02-22T17:43:29.605Z,12.51
2023-02-22T17:45:58.771Z,12.50
2023-02-22T17:48:27.210Z,12.48
2023-02-22T17:50:54.984Z,12.45
2023-02-22T17:53:24.795Z,12.45
2023-02-22T17:55:52.736Z,12.42
2023-02-22T17:58:20.603Z,12.40
2023-02-22T18:00:50.816Z,12.40
2023-02-22T18:03:21.873Z,12.38
2023-02-22T18:05:54.955Z,12.36
2023-02-22T18:08:24.440Z,12.33
2023-02-22T18:10:56.309Z,12.33
2023-02-22T18:13:25.963Z,12.30
2023-02-22T18:15:54.304Z,12.30
2023-02-22T18:18:23.419Z,12.30
2023-02-22T18:20:55.620Z,12.27
2023-02-22T18:23:27.808Z,12.23
2023-02-22T18:26:09.757Z,12.23
2023-02-22T18:28:38.341Z,12.19
2023-02-22T18:31:08.644Z,12.23
2023-02-22T18:33:38.156Z,12.21
2023-02-22T18:36:07.581Z,12.18
2023-02-22T18:38:35.321Z,12.16
2023-02-22T18:41:04.941Z,12.16
2023-02-22T18:43:34.318Z,12.13
2023-02-22T18:46:09.919Z,12.13
2023-02-22T18:48:39.506Z,12.09
2023-02-22T18:51:10.257Z,12.09
2023-02-22T18:53:38.704Z,12.05
2023-02-22T18:56:07.705Z,12.04
2023-02-22T18:58:36.234Z,12.02
2023-02-22T19:01:05.688Z,12.02
2023-02-22T19:03:38.153Z,11.99
2023-02-22T19:06:09.757Z,11.96
2023-02-22T19:08:39.587Z,11.93
2023-02-22T19:11:09.764Z,11.92
2023-02-22T19:13:37.908Z,11.89
2023-02-22T19:16:08.199Z,11.89
2023-02-22T19:18:36.236Z,11.84
2023-02-22T19:21:08.584Z,11.82
2023-02-22T19:23:45.364Z,11.78
2023-02-22T19:26:14.240Z,11.75
2023-02-22T19:28:41.960Z,11.72
2023-02-22T19:31:18.584Z,11.74
2023-02-22T19:33:48.278Z,11.68
2023-02-22T19:36:16.681Z,11.64
2023-02-22T19:38:46.383Z,11.63
2023-02-22T19:41:18.150Z,11.60
2023-02-22T19:43:46.877Z,11.54
2023-02-22T19:46:17.719Z,11.54
2023-02-22T19:48:46.007Z,11.52
2023-02-22T19:51:15.714Z,11.51
2023-02-22T19:53:44.706Z,11.49
2023-02-22T19:56:16.292Z,11.49
2023-02-22T19:58:46.447Z,11.46
2023-02-22T20:01:14.761Z,11.44
2023-02-22T20:03:43.539Z,11.43
2023-02-22T20:06:11.931Z,11.41
2023-02-22T20:08:42.187Z,11.40
2023-02-22T20:11:11.453Z,11.39
2023-02-22T20:13:41.516Z,11.37
2023-02-22T20:16:10.801Z,11.35
2023-02-22T20:18:38.687Z,11.33
2023-02-22T20:21:10.118Z,11.35
2023-02-22T20:23:40.150Z,11.32
2023-02-22T20:26:16.101Z,11.33
2023-02-22T20:28:45.777Z,11.31
2023-02-22T20:31:16.335Z,11.30
2023-02-22T20:33:46.658Z,11.29
2023-02-22T20:36:16.579Z,11.28
2023-02-22T20:38:45.158Z,11.26
2023-02-22T20:41:15.660Z,11.26
2023-02-22T20:43:45.046Z,11.24
2023-02-22T20:46:12.849Z,11.24
2023-02-22T20:48:40.669Z,11.23
2023-02-22T20:51:10.431Z,11.23
2023-02-22T20:53:41.668Z,11.21
2023-02-22T20:56:13.602Z,11.24
2023-02-22T20:58:41.679Z,11.19
2023-02-22T21:01:13.797Z,11.22
2023-02-22T21:03:43.154Z,11.19
2023-02-22T21:06:14.975Z,11.19
2023-02-22T21:08:44.370Z,11.17
2023-02-22T21:11:12.806Z,11.19
2023-02-22T21:13:40.759Z,11.18
2023-02-22T21:16:11.000Z,11.18
2023-02-22T21:18:38.862Z,11.16
2023-02-22T21:21:10.360Z,11.15
2023-02-22T21:23:39.166Z,11.14
2023-02-22T21:26:07.439Z,11.13
2023-02-22T21:28:50.404Z,11.12
2023-02-22T21:31:22.326Z,11.13
2023-02-22T21:33:51.627Z,11.09
2023-02-22T21:36:20.441Z,11.10
2023-02-22T21:38:53.284Z,11.11
2023-02-22T21:41:24.173Z,11.09
2023-02-22T21:43:53.229Z,11.09
2023-02-22T21:46:22.623Z,11.10
2023-02-22T21:48:51.010Z,11.08
2023-02-22T21:51:21.691Z,11.08
2023-02-22T21:53:52.101Z,11.07
2023-02-22T21:56:24.237Z,11.07
2023-02-22T21:58:59.053Z,11.05
2023-02-22T22:01:29.436Z,11.04
2023-02-22T22:04:00.012Z,11.03
2023-02-22T22:06:29.235Z,11.02
2023-02-22T22:08:59.753Z,11.01
2023-02-22T22:11:30.463Z,10.99
2023-02-22T22:13:59.606Z,10.98
2023-02-22T22:16:30.164Z,11.00
2023-02-22T22:18:58.836Z,10.97
2023-02-22T22:21:26.832Z,10.97
2023-02-22T22:23:56.069Z,10.96
2023-02-22T22:26:25.704Z,10.97
2023-02-22T22:28:55.833Z,10.96
2023-02-22T22:31:25.867Z,10.95
2023-02-22T22:33:56.340Z,10.96
2023-02-22T22:36:26.552Z,10.95
2023-02-22T22:38:57.259Z,10.94
2023-02-22T22:41:28.050Z,10.94
2023-02-22T22:43:56.728Z,10.93
2023-02-22T22:46:24.570Z,10.93
2023-02-22T22:48:52.430Z,10.93
2023-02-22T22:51:22.944Z,10.94
2023-02-22T22:53:52.898Z,10.93
2023-02-22T22:56:25.867Z,10.92
2023-02-22T22:58:54.787Z,10.66
2023-02-22T23:01:27.087Z,10.86
2023-02-22T23:03:59.238Z,10.88
2023-02-22T23:06:32.894Z,10.88
2023-02-22T23:09:11.641Z,10.86
2023-02-22T23:11:44.318Z,10.85
2023-02-22T23:14:13.216Z,10.59
2023-02-22T23:16:42.235Z,10.79
2023-02-22T23:19:10.760Z,10.81
2023-02-22T23:21:42.991Z,10.81
2023-02-22T23:24:15.070Z,10.77
2023-02-22T23:26:48.303Z,10.76
2023-02-22T23:29:17.200Z,10.77
2023-02-22T23:31:47.958Z,10.77
2023-02-22T23:34:16.738Z,10.75
2023-02-22T23:36:46.745Z,10.77
2023-02-22T23:39:16.823Z,10.74
2023-02-22T23:41:44.836Z,10.73
2023-02-22T23:44:17.372Z,10.73
2023-02-22T23:46:48.199Z,10.47
2023-02-22T23:49:19.986Z,10.66
2023-02-22T23:51:49.843Z,10.70
2023-02-22T23:54:20.289Z,10.69
2023-02-22T23:56:56.337Z,10.67
2023-02-22T23:59:25.357Z,10.66
